NCAR-RAP Real-Time Weather Data

Output produced by METARs form (27 July 2017  18:40 UTC)
found at http://weather.rap.ucar.edu/surface/
 
Conditions at: KLOU observed 27 July 2017  18:11 UTC
Temperature: 29.4°C (85°F)
Dewpoint: 25.0°C (77°F) [RH = 77%]
Pressure (altimeter): 29.95 inches Hg (1014.3 mb)
Winds: from the W (280 degrees) at 7 MPH (6 knots; 3.1 m/s)
Visibility: 10 or more miles (16+ km)
Ceiling: 2800 feet AGL
Clouds: scattered clouds at 2000 feet AGL
broken clouds at 2800 feet AGL
Present Weather: no significant weather observed at this time
KLOU 271811Z 28006KT 10SM SCT020 BKN028 29/25 A2995 RMK AO2 T02940250